sensor_id;sensor_type;location;lat;lon;timestamp;P1;durP1;ratioP1;P2;durP2;ratioP2
51244;SDS011;37840;47.562;18.738;2023-07-13T00:01:58;4.65;;;2.10;;
51244;SDS011;37840;47.562;18.738;2023-07-13T00:04:24;5.12;;;2.17;;
51244;SDS011;37840;47.562;18.738;2023-07-13T00:06:53;3.33;;;2.50;;
51244;SDS011;37840;47.562;18.738;2023-07-13T00:09:19;4.45;;;2.30;;
51244;SDS011;37840;47.562;18.738;2023-07-13T00:11:50;4.25;;;2.25;;
51244;SDS011;37840;47.562;18.738;2023-07-13T00:14:17;4.05;;;2.45;;
51244;SDS011;37840;47.562;18.738;2023-07-13T00:16:44;8.13;;;2.87;;
51244;SDS011;37840;47.562;18.738;2023-07-13T00:19:11;5.10;;;2.62;;
51244;SDS011;37840;47.562;18.738;2023-07-13T00:21:38;4.28;;;2.25;;
51244;SDS011;37840;47.562;18.738;2023-07-13T00:24:05;3.62;;;2.30;;
51244;SDS011;37840;47.562;18.738;2023-07-13T00:26:32;3.92;;;1.98;;
51244;SDS011;37840;47.562;18.738;2023-07-13T00:28:58;5.60;;;2.20;;
51244;SDS011;37840;47.562;18.738;2023-07-13T00:31:24;4.12;;;1.98;;
51244;SDS011;37840;47.562;18.738;2023-07-13T00:33:51;3.10;;;1.95;;
51244;SDS011;37840;47.562;18.738;2023-07-13T00:36:17;4.03;;;2.03;;
51244;SDS011;37840;47.562;18.738;2023-07-13T00:38:46;2.78;;;2.17;;
51244;SDS011;37840;47.562;18.738;2023-07-13T00:41:12;2.67;;;2.00;;
51244;SDS011;37840;47.562;18.738;2023-07-13T00:43:38;3.78;;;2.00;;
51244;SDS011;37840;47.562;18.738;2023-07-13T00:46:10;5.90;;;2.40;;
51244;SDS011;37840;47.562;18.738;2023-07-13T00:48:41;3.05;;;1.90;;
51244;SDS011;37840;47.562;18.738;2023-07-13T00:51:10;3.70;;;2.00;;
51244;SDS011;37840;47.562;18.738;2023-07-13T00:53:36;4.90;;;2.10;;
51244;SDS011;37840;47.562;18.738;2023-07-13T00:56:02;2.78;;;2.08;;
51244;SDS011;37840;47.562;18.738;2023-07-13T00:58:29;3.47;;;2.00;;
51244;SDS011;37840;47.562;18.738;2023-07-13T01:00:55;3.62;;;2.10;;
51244;SDS011;37840;47.562;18.738;2023-07-13T01:03:21;3.45;;;1.95;;
51244;SDS011;37840;47.562;18.738;2023-07-13T01:05:48;3.37;;;2.10;;
51244;SDS011;37840;47.562;18.738;2023-07-13T01:08:15;3.37;;;1.70;;
51244;SDS011;37840;47.562;18.738;2023-07-13T01:10:50;2.72;;;1.90;;
51244;SDS011;37840;47.562;18.738;2023-07-13T01:13:17;3.30;;;1.60;;
51244;SDS011;37840;47.562;18.738;2023-07-13T01:15:44;2.92;;;2.00;;
51244;SDS011;37840;47.562;18.738;2023-07-13T01:18:19;3.85;;;2.08;;
51244;SDS011;37840;47.562;18.738;2023-07-13T01:23:17;3.17;;;1.45;;
51244;SDS011;37840;47.562;18.738;2023-07-13T01:25:44;2.87;;;1.60;;
51244;SDS011;37840;47.562;18.738;2023-07-13T01:28:11;3.35;;;1.48;;
51244;SDS011;37840;47.562;18.738;2023-07-13T01:30:37;3.72;;;1.42;;
51244;SDS011;37840;47.562;18.738;2023-07-13T01:33:06;3.15;;;1.60;;
51244;SDS011;37840;47.562;18.738;2023-07-13T01:35:33;2.12;;;1.55;;
51244;SDS011;37840;47.562;18.738;2023-07-13T01:37:59;3.47;;;1.70;;
51244;SDS011;37840;47.562;18.738;2023-07-13T01:40:27;2.55;;;1.60;;
51244;SDS011;37840;47.562;18.738;2023-07-13T01:42:55;2.50;;;1.58;;
51244;SDS011;37840;47.562;18.738;2023-07-13T01:45:21;3.85;;;1.70;;
51244;SDS011;37840;47.562;18.738;2023-07-13T01:47:47;1.90;;;1.52;;
51244;SDS011;37840;47.562;18.738;2023-07-13T01:50:13;2.30;;;1.50;;
51244;SDS011;37840;47.562;18.738;2023-07-13T01:52:39;4.22;;;1.67;;
51244;SDS011;37840;47.562;18.738;2023-07-13T01:55:05;2.58;;;1.40;;
51244;SDS011;37840;47.562;18.738;2023-07-13T01:57:31;1.70;;;1.50;;
51244;SDS011;37840;47.562;18.738;2023-07-13T01:59:57;3.30;;;1.83;;
51244;SDS011;37840;47.562;18.738;2023-07-13T02:02:23;3.00;;;2.00;;
51244;SDS011;37840;47.562;18.738;2023-07-13T02:04:49;2.25;;;1.55;;
51244;SDS011;37840;47.562;18.738;2023-07-13T02:07:15;3.17;;;1.90;;
51244;SDS011;37840;47.562;18.738;2023-07-13T02:09:41;4.05;;;1.70;;
51244;SDS011;37840;47.562;18.738;2023-07-13T02:12:07;2.15;;;1.62;;
51244;SDS011;37840;47.562;18.738;2023-07-13T02:14:34;2.92;;;1.98;;
51244;SDS011;37840;47.562;18.738;2023-07-13T02:17:00;3.22;;;2.10;;
51244;SDS011;37840;47.562;18.738;2023-07-13T02:19:26;3.42;;;2.10;;
51244;SDS011;37840;47.562;18.738;2023-07-13T02:21:52;2.92;;;2.00;;
51244;SDS011;37840;47.562;18.738;2023-07-13T02:24:18;3.30;;;1.77;;
51244;SDS011;37840;47.562;18.738;2023-07-13T02:26:46;2.62;;;2.00;;
51244;SDS011;37840;47.562;18.738;2023-07-13T02:29:13;3.10;;;1.80;;
51244;SDS011;37840;47.562;18.738;2023-07-13T02:31:39;3.95;;;2.20;;
51244;SDS011;37840;47.562;18.738;2023-07-13T02:34:05;3.67;;;2.37;;
51244;SDS011;37840;47.562;18.738;2023-07-13T02:36:31;3.15;;;2.37;;
51244;SDS011;37840;47.562;18.738;2023-07-13T02:39:00;5.90;;;2.50;;
51244;SDS011;37840;47.562;18.738;2023-07-13T02:41:26;3.17;;;2.45;;
51244;SDS011;37840;47.562;18.738;2023-07-13T02:43:52;4.85;;;2.10;;
51244;SDS011;37840;47.562;18.738;2023-07-13T02:46:18;3.17;;;2.25;;
51244;SDS011;37840;47.562;18.738;2023-07-13T02:48:45;2.80;;;2.30;;
51244;SDS011;37840;47.562;18.738;2023-07-13T02:51:11;3.12;;;2.35;;
51244;SDS011;37840;47.562;18.738;2023-07-13T02:53:37;3.53;;;2.10;;
51244;SDS011;37840;47.562;18.738;2023-07-13T02:56:04;4.97;;;2.60;;
51244;SDS011;37840;47.562;18.738;2023-07-13T02:58:30;4.20;;;2.60;;
51244;SDS011;37840;47.562;18.738;2023-07-13T03:00:56;2.85;;;2.20;;
51244;SDS011;37840;47.562;18.738;2023-07-13T03:03:23;5.90;;;2.37;;
51244;SDS011;37840;47.562;18.738;2023-07-13T03:05:57;3.60;;;2.28;;
51244;SDS011;37840;47.562;18.738;2023-07-13T03:08:25;4.60;;;2.30;;
51244;SDS011;37840;47.562;18.738;2023-07-13T03:11:01;3.40;;;2.20;;
51244;SDS011;37840;47.562;18.738;2023-07-13T03:13:30;3.80;;;2.15;;
51244;SDS011;37840;47.562;18.738;2023-07-13T03:15:56;5.35;;;2.40;;
51244;SDS011;37840;47.562;18.738;2023-07-13T03:18:23;5.50;;;2.47;;
51244;SDS011;37840;47.562;18.738;2023-07-13T03:20:52;3.37;;;2.40;;
51244;SDS011;37840;47.562;18.738;2023-07-13T03:23:18;4.97;;;2.65;;
51244;SDS011;37840;47.562;18.738;2023-07-13T03:25:46;4.05;;;2.10;;
51244;SDS011;37840;47.562;18.738;2023-07-13T03:28:12;5.40;;;2.42;;
51244;SDS011;37840;47.562;18.738;2023-07-13T03:30:38;3.80;;;2.35;;
51244;SDS011;37840;47.562;18.738;2023-07-13T03:33:04;3.03;;;2.37;;
51244;SDS011;37840;47.562;18.738;2023-07-13T03:35:30;6.18;;;2.40;;
51244;SDS011;37840;47.562;18.738;2023-07-13T03:37:58;3.30;;;2.22;;
51244;SDS011;37840;47.562;18.738;2023-07-13T03:40:25;4.95;;;3.12;;
51244;SDS011;37840;47.562;18.738;2023-07-13T03:42:52;4.45;;;2.97;;
51244;SDS011;37840;47.562;18.738;2023-07-13T03:45:19;5.18;;;3.47;;
51244;SDS011;37840;47.562;18.738;2023-07-13T03:47:45;5.60;;;2.95;;
51244;SDS011;37840;47.562;18.738;2023-07-13T03:50:11;5.47;;;3.45;;
51244;SDS011;37840;47.562;18.738;2023-07-13T03:52:37;4.28;;;3.37;;
51244;SDS011;37840;47.562;18.738;2023-07-13T03:55:03;6.53;;;3.12;;
51244;SDS011;37840;47.562;18.738;2023-07-13T03:57:29;6.18;;;3.55;;
51244;SDS011;37840;47.562;18.738;2023-07-13T03:59:56;6.75;;;3.95;;
51244;SDS011;37840;47.562;18.738;2023-07-13T04:02:22;5.47;;;3.78;;
51244;SDS011;37840;47.562;18.738;2023-07-13T04:04:48;4.80;;;3.95;;
51244;SDS011;37840;47.562;18.738;2023-07-13T04:07:13;7.60;;;4.37;;
51244;SDS011;37840;47.562;18.738;2023-07-13T04:09:39;6.78;;;3.70;;
51244;SDS011;37840;47.562;18.738;2023-07-13T04:12:05;5.65;;;4.18;;
51244;SDS011;37840;47.562;18.738;2023-07-13T04:14:31;4.95;;;3.42;;
51244;SDS011;37840;47.562;18.738;2023-07-13T04:16:58;6.40;;;4.03;;
51244;SDS011;37840;47.562;18.738;2023-07-13T04:19:24;6.57;;;3.80;;
51244;SDS011;37840;47.562;18.738;2023-07-13T04:21:50;4.43;;;3.70;;
51244;SDS011;37840;47.562;18.738;2023-07-13T04:24:16;6.50;;;3.95;;
51244;SDS011;37840;47.562;18.738;2023-07-13T04:26:42;4.25;;;3.65;;
51244;SDS011;37840;47.562;18.738;2023-07-13T04:29:07;5.62;;;3.83;;
51244;SDS011;37840;47.562;18.738;2023-07-13T04:31:33;5.45;;;3.90;;
51244;SDS011;37840;47.562;18.738;2023-07-13T04:33:59;5.28;;;3.55;;
51244;SDS011;37840;47.562;18.738;2023-07-13T04:36:25;6.70;;;3.92;;
51244;SDS011;37840;47.562;18.738;2023-07-13T04:38:54;5.35;;;3.62;;
51244;SDS011;37840;47.562;18.738;2023-07-13T04:41:20;4.60;;;3.60;;
51244;SDS011;37840;47.562;18.738;2023-07-13T04:43:47;5.10;;;3.55;;
51244;SDS011;37840;47.562;18.738;2023-07-13T04:46:14;5.30;;;3.90;;
51244;SDS011;37840;47.562;18.738;2023-07-13T04:48:43;4.97;;;3.67;;
51244;SDS011;37840;47.562;18.738;2023-07-13T04:51:09;6.53;;;3.42;;
51244;SDS011;37840;47.562;18.738;2023-07-13T04:53:35;5.43;;;3.08;;
51244;SDS011;37840;47.562;18.738;2023-07-13T04:56:02;5.65;;;2.90;;
51244;SDS011;37840;47.562;18.738;2023-07-13T04:58:29;9.85;;;3.10;;
51244;SDS011;37840;47.562;18.738;2023-07-13T05:01:04;4.05;;;2.75;;
51244;SDS011;37840;47.562;18.738;2023-07-13T05:03:31;3.62;;;2.30;;
51244;SDS011;37840;47.562;18.738;2023-07-13T05:05:58;6.45;;;3.25;;
51244;SDS011;37840;47.562;18.738;2023-07-13T05:08:29;3.65;;;1.95;;
51244;SDS011;37840;47.562;18.738;2023-07-13T05:10:55;3.85;;;2.05;;
51244;SDS011;37840;47.562;18.738;2023-07-13T05:13:22;4.93;;;2.00;;
51244;SDS011;37840;47.562;18.738;2023-07-13T05:15:56;2.78;;;2.15;;
51244;SDS011;37840;47.562;18.738;2023-07-13T05:18:26;3.80;;;1.77;;
51244;SDS011;37840;47.562;18.738;2023-07-13T05:20:59;4.10;;;1.92;;
51244;SDS011;37840;47.562;18.738;2023-07-13T05:23:28;2.35;;;1.73;;
51244;SDS011;37840;47.562;18.738;2023-07-13T05:25:54;2.47;;;2.20;;
51244;SDS011;37840;47.562;18.738;2023-07-13T05:28:21;3.37;;;1.70;;
51244;SDS011;37840;47.562;18.738;2023-07-13T05:30:47;2.97;;;1.35;;
51244;SDS011;37840;47.562;18.738;2023-07-13T05:33:14;2.42;;;1.30;;
51244;SDS011;37840;47.562;18.738;2023-07-13T05:35:41;4.32;;;1.42;;
51244;SDS011;37840;47.562;18.738;2023-07-13T05:38:07;3.05;;;1.37;;
51244;SDS011;37840;47.562;18.738;2023-07-13T05:40:33;3.15;;;1.70;;
51244;SDS011;37840;47.562;18.738;2023-07-13T05:42:59;3.70;;;1.55;;
51244;SDS011;37840;47.562;18.738;2023-07-13T05:45:25;2.80;;;1.50;;
51244;SDS011;37840;47.562;18.738;2023-07-13T05:47:51;2.22;;;1.10;;
51244;SDS011;37840;47.562;18.738;2023-07-13T05:50:17;6.10;;;1.60;;
51244;SDS011;37840;47.562;18.738;2023-07-13T05:52:44;3.45;;;1.40;;
51244;SDS011;37840;47.562;18.738;2023-07-13T05:55:09;3.05;;;1.60;;
51244;SDS011;37840;47.562;18.738;2023-07-13T05:57:35;2.55;;;1.40;;
51244;SDS011;37840;47.562;18.738;2023-07-13T06:00:01;3.25;;;1.60;;
51244;SDS011;37840;47.562;18.738;2023-07-13T06:02:28;2.78;;;1.67;;
51244;SDS011;37840;47.562;18.738;2023-07-13T06:04:54;2.25;;;1.42;;
51244;SDS011;37840;47.562;18.738;2023-07-13T06:07:20;2.40;;;1.33;;
51244;SDS011;37840;47.562;18.738;2023-07-13T06:09:46;2.53;;;1.50;;
51244;SDS011;37840;47.562;18.738;2023-07-13T06:12:11;1.98;;;1.77;;
51244;SDS011;37840;47.562;18.738;2023-07-13T06:14:37;2.83;;;1.55;;
51244;SDS011;37840;47.562;18.738;2023-07-13T06:17:03;2.37;;;1.45;;
51244;SDS011;37840;47.562;18.738;2023-07-13T06:19:30;1.90;;;1.45;;
51244;SDS011;37840;47.562;18.738;2023-07-13T06:21:56;2.90;;;1.60;;
51244;SDS011;37840;47.562;18.738;2023-07-13T06:24:24;1.70;;;1.20;;
51244;SDS011;37840;47.562;18.738;2023-07-13T06:26:50;3.72;;;1.60;;
51244;SDS011;37840;47.562;18.738;2023-07-13T06:29:16;1.73;;;1.27;;
51244;SDS011;37840;47.562;18.738;2023-07-13T06:31:42;3.78;;;1.40;;
51244;SDS011;37840;47.562;18.738;2023-07-13T06:34:08;2.45;;;1.35;;
51244;SDS011;37840;47.562;18.738;2023-07-13T06:36:34;3.22;;;1.40;;
51244;SDS011;37840;47.562;18.738;2023-07-13T06:39:02;2.20;;;1.45;;
51244;SDS011;37840;47.562;18.738;2023-07-13T06:41:28;1.73;;;1.52;;
51244;SDS011;37840;47.562;18.738;2023-07-13T06:43:54;1.83;;;1.48;;
51244;SDS011;37840;47.562;18.738;2023-07-13T06:46:21;2.72;;;1.12;;
51244;SDS011;37840;47.562;18.738;2023-07-13T06:48:48;2.00;;;1.30;;
51244;SDS011;37840;47.562;18.738;2023-07-13T06:51:14;1.98;;;1.40;;
51244;SDS011;37840;47.562;18.738;2023-07-13T06:53:40;2.20;;;1.40;;
51244;SDS011;37840;47.562;18.738;2023-07-13T06:56:06;2.67;;;1.52;;
51244;SDS011;37840;47.562;18.738;2023-07-13T06:58:33;2.40;;;1.20;;
51244;SDS011;37840;47.562;18.738;2023-07-13T07:00:59;5.90;;;1.50;;
51244;SDS011;37840;47.562;18.738;2023-07-13T07:03:25;1.37;;;1.08;;
51244;SDS011;37840;47.562;18.738;2023-07-13T07:05:51;2.45;;;1.30;;
51244;SDS011;37840;47.562;18.738;2023-07-13T07:08:18;2.47;;;1.50;;
51244;SDS011;37840;47.562;18.738;2023-07-13T07:10:45;1.60;;;1.25;;
51244;SDS011;37840;47.562;18.738;2023-07-13T07:13:12;3.17;;;1.60;;
51244;SDS011;37840;47.562;18.738;2023-07-13T07:15:38;4.55;;;1.50;;
51244;SDS011;37840;47.562;18.738;2023-07-13T07:18:03;2.40;;;1.52;;
51244;SDS011;37840;47.562;18.738;2023-07-13T07:20:29;2.92;;;1.62;;
51244;SDS011;37840;47.562;18.738;2023-07-13T07:22:56;2.75;;;1.30;;
51244;SDS011;37840;47.562;18.738;2023-07-13T07:25:22;3.55;;;1.20;;
51244;SDS011;37840;47.562;18.738;2023-07-13T07:27:47;1.92;;;1.35;;
51244;SDS011;37840;47.562;18.738;2023-07-13T07:30:13;2.72;;;1.35;;
51244;SDS011;37840;47.562;18.738;2023-07-13T07:32:40;2.33;;;1.20;;
51244;SDS011;37840;47.562;18.738;2023-07-13T07:35:07;1.90;;;1.30;;
51244;SDS011;37840;47.562;18.738;2023-07-13T07:37:33;2.28;;;1.25;;
51244;SDS011;37840;47.562;18.738;2023-07-13T07:39:59;2.90;;;1.17;;
51244;SDS011;37840;47.562;18.738;2023-07-13T07:42:25;1.73;;;1.15;;
51244;SDS011;37840;47.562;18.738;2023-07-13T07:44:51;2.37;;;1.45;;
51244;SDS011;37840;47.562;18.738;2023-07-13T07:47:17;2.67;;;1.30;;
51244;SDS011;37840;47.562;18.738;2023-07-13T07:49:43;2.35;;;1.40;;
51244;SDS011;37840;47.562;18.738;2023-07-13T07:52:09;2.10;;;1.40;;
51244;SDS011;37840;47.562;18.738;2023-07-13T07:54:34;1.40;;;1.25;;
51244;SDS011;37840;47.562;18.738;2023-07-13T07:57:00;2.25;;;1.40;;
51244;SDS011;37840;47.562;18.738;2023-07-13T07:59:26;1.37;;;1.27;;
51244;SDS011;37840;47.562;18.738;2023-07-13T08:01:52;1.98;;;1.42;;
51244;SDS011;37840;47.562;18.738;2023-07-13T08:04:18;3.78;;;1.60;;
51244;SDS011;37840;47.562;18.738;2023-07-13T08:06:44;2.80;;;1.50;;
51244;SDS011;37840;47.562;18.738;2023-07-13T08:09:10;3.35;;;1.50;;
51244;SDS011;37840;47.562;18.738;2023-07-13T08:11:36;1.92;;;1.48;;
51244;SDS011;37840;47.562;18.738;2023-07-13T08:14:02;2.62;;;1.30;;
51244;SDS011;37840;47.562;18.738;2023-07-13T08:16:28;2.58;;;1.58;;
51244;SDS011;37840;47.562;18.738;2023-07-13T08:18:54;1.58;;;1.30;;
51244;SDS011;37840;47.562;18.738;2023-07-13T08:21:20;1.67;;;1.37;;
51244;SDS011;37840;47.562;18.738;2023-07-13T08:23:47;4.22;;;1.30;;
51244;SDS011;37840;47.562;18.738;2023-07-13T08:26:13;2.75;;;1.73;;
51244;SDS011;37840;47.562;18.738;2023-07-13T08:28:39;2.10;;;1.40;;
51244;SDS011;37840;47.562;18.738;2023-07-13T08:31:06;2.70;;;1.77;;
51244;SDS011;37840;47.562;18.738;2023-07-13T08:33:34;2.62;;;1.60;;
51244;SDS011;37840;47.562;18.738;2023-07-13T08:36:01;2.28;;;1.40;;
51244;SDS011;37840;47.562;18.738;2023-07-13T08:38:27;3.17;;;1.58;;
51244;SDS011;37840;47.562;18.738;2023-07-13T08:40:53;2.58;;;1.42;;
51244;SDS011;37840;47.562;18.738;2023-07-13T08:43:30;1.70;;;1.30;;
51244;SDS011;37840;47.562;18.738;2023-07-13T08:48:31;2.00;;;1.60;;
51244;SDS011;37840;47.562;18.738;2023-07-13T08:53:55;2.12;;;1.55;;
51244;SDS011;37840;47.562;18.738;2023-07-13T08:56:27;2.97;;;1.42;;
51244;SDS011;37840;47.562;18.738;2023-07-13T08:58:56;2.00;;;1.30;;
51244;SDS011;37840;47.562;18.738;2023-07-13T09:04:28;2.17;;;1.40;;
51244;SDS011;37840;47.562;18.738;2023-07-13T09:07:05;1.50;;;1.33;;
51244;SDS011;37840;47.562;18.738;2023-07-13T09:12:31;1.60;;;1.10;;
51244;SDS011;37840;47.562;18.738;2023-07-13T09:15:01;2.20;;;1.20;;
51244;SDS011;37840;47.562;18.738;2023-07-13T09:17:36;1.85;;;1.23;;
51244;SDS011;37840;47.562;18.738;2023-07-13T09:22:36;1.77;;;1.10;;
51244;SDS011;37840;47.562;18.738;2023-07-13T09:28:21;2.92;;;1.30;;
51244;SDS011;37840;47.562;18.738;2023-07-13T09:31:14;3.28;;;1.58;;
51244;SDS011;37840;47.562;18.738;2023-07-13T09:33:47;3.28;;;1.45;;
51244;SDS011;37840;47.562;18.738;2023-07-13T09:36:28;2.67;;;1.23;;
51244;SDS011;37840;47.562;18.738;2023-07-13T09:47:03;1.25;;;1.10;;
51244;SDS011;37840;47.562;18.738;2023-07-13T09:49:42;2.30;;;1.30;;
51244;SDS011;37840;47.562;18.738;2023-07-13T09:52:14;2.65;;;1.50;;
51244;SDS011;37840;47.562;18.738;2023-07-13T09:54:45;2.50;;;1.30;;
51244;SDS011;37840;47.562;18.738;2023-07-13T09:57:15;2.12;;;1.30;;
51244;SDS011;37840;47.562;18.738;2023-07-13T09:59:44;2.60;;;1.20;;
51244;SDS011;37840;47.562;18.738;2023-07-13T10:02:26;2.05;;;1.20;;
51244;SDS011;37840;47.562;18.738;2023-07-13T10:05:01;2.15;;;1.45;;
51244;SDS011;37840;47.562;18.738;2023-07-13T10:07:30;1.98;;;1.10;;
51244;SDS011;37840;47.562;18.738;2023-07-13T10:09:58;3.95;;;1.35;;
51244;SDS011;37840;47.562;18.738;2023-07-13T10:12:26;4.37;;;1.50;;
51244;SDS011;37840;47.562;18.738;2023-07-13T10:14:56;2.10;;;1.20;;
51244;SDS011;37840;47.562;18.738;2023-07-13T10:17:30;2.10;;;1.33;;
51244;SDS011;37840;47.562;18.738;2023-07-13T10:19:59;1.85;;;1.30;;
51244;SDS011;37840;47.562;18.738;2023-07-13T10:25:19;2.33;;;1.50;;
51244;SDS011;37840;47.562;18.738;2023-07-13T10:28:10;1.67;;;1.37;;
51244;SDS011;37840;47.562;18.738;2023-07-13T10:30:52;2.72;;;1.37;;
51244;SDS011;37840;47.562;18.738;2023-07-13T10:33:22;2.20;;;1.40;;
51244;SDS011;37840;47.562;18.738;2023-07-13T10:35:48;1.65;;;1.30;;
51244;SDS011;37840;47.562;18.738;2023-07-13T10:38:19;2.53;;;1.50;;
51244;SDS011;37840;47.562;18.738;2023-07-13T10:43:37;2.92;;;1.60;;
51244;SDS011;37840;47.562;18.738;2023-07-13T10:46:10;2.60;;;1.37;;
51244;SDS011;37840;47.562;18.738;2023-07-13T10:48:38;2.35;;;1.40;;
51244;SDS011;37840;47.562;18.738;2023-07-13T10:51:08;1.83;;;1.30;;
51244;SDS011;37840;47.562;18.738;2023-07-13T10:53:37;3.60;;;1.67;;
51244;SDS011;37840;47.562;18.738;2023-07-13T10:58:47;2.08;;;1.50;;
51244;SDS011;37840;47.562;18.738;2023-07-13T11:01:26;3.75;;;1.65;;
51244;SDS011;37840;47.562;18.738;2023-07-13T11:04:08;2.10;;;1.40;;
51244;SDS011;37840;47.562;18.738;2023-07-13T11:06:39;1.77;;;1.40;;
51244;SDS011;37840;47.562;18.738;2023-07-13T11:09:25;3.20;;;1.30;;
51244;SDS011;37840;47.562;18.738;2023-07-13T11:11:56;2.85;;;1.45;;
51244;SDS011;37840;47.562;18.738;2023-07-13T11:14:31;1.90;;;1.40;;
51244;SDS011;37840;47.562;18.738;2023-07-13T11:17:23;2.40;;;1.20;;
51244;SDS011;37840;47.562;18.738;2023-07-13T11:20:18;2.12;;;1.45;;
51244;SDS011;37840;47.562;18.738;2023-07-13T11:22:51;1.83;;;1.35;;
51244;SDS011;37840;47.562;18.738;2023-07-13T11:25:32;2.03;;;1.33;;
51244;SDS011;37840;47.562;18.738;2023-07-13T11:31:21;2.08;;;1.20;;
51244;SDS011;37840;47.562;18.738;2023-07-13T11:33:50;1.77;;;1.48;;
51244;SDS011;37840;47.562;18.738;2023-07-13T11:36:15;2.08;;;1.70;;
51244;SDS011;37840;47.562;18.738;2023-07-13T11:41:17;1.70;;;1.48;;
51244;SDS011;37840;47.562;18.738;2023-07-13T11:43:50;1.87;;;1.30;;
51244;SDS011;37840;47.562;18.738;2023-07-13T11:46:20;1.95;;;1.20;;
51244;SDS011;37840;47.562;18.738;2023-07-13T11:48:48;2.85;;;1.58;;
51244;SDS011;37840;47.562;18.738;2023-07-13T11:51:23;2.50;;;1.70;;
51244;SDS011;37840;47.562;18.738;2023-07-13T11:53:58;3.05;;;1.87;;
51244;SDS011;37840;47.562;18.738;2023-07-13T11:56:28;5.62;;;2.12;;
51244;SDS011;37840;47.562;18.738;2023-07-13T11:58:55;1.70;;;1.50;;
51244;SDS011;37840;47.562;18.738;2023-07-13T12:01:24;2.08;;;1.80;;
51244;SDS011;37840;47.562;18.738;2023-07-13T12:03:54;3.15;;;1.80;;
51244;SDS011;37840;47.562;18.738;2023-07-13T12:06:25;3.75;;;1.85;;
51244;SDS011;37840;47.562;18.738;2023-07-13T12:08:57;2.12;;;1.50;;
51244;SDS011;37840;47.562;18.738;2023-07-13T12:11:24;2.72;;;1.98;;
51244;SDS011;37840;47.562;18.738;2023-07-13T12:13:50;2.12;;;1.77;;
51244;SDS011;37840;47.562;18.738;2023-07-13T12:16:28;2.05;;;1.75;;
51244;SDS011;37840;47.562;18.738;2023-07-13T12:19:01;2.03;;;1.42;;
51244;SDS011;37840;47.562;18.738;2023-07-13T12:21:38;2.10;;;1.65;;
51244;SDS011;37840;47.562;18.738;2023-07-13T12:24:05;1.83;;;1.52;;
51244;SDS011;37840;47.562;18.738;2023-07-13T12:26:40;2.08;;;1.65;;
51244;SDS011;37840;47.562;18.738;2023-07-13T12:29:07;2.58;;;1.60;;
51244;SDS011;37840;47.562;18.738;2023-07-13T12:31:51;2.25;;;1.60;;
51244;SDS011;37840;47.562;18.738;2023-07-13T12:34:19;2.05;;;1.50;;
51244;SDS011;37840;47.562;18.738;2023-07-13T12:36:53;2.10;;;1.80;;
51244;SDS011;37840;47.562;18.738;2023-07-13T12:41:49;3.70;;;1.77;;
51244;SDS011;37840;47.562;18.738;2023-07-13T12:44:18;2.28;;;1.70;;
51244;SDS011;37840;47.562;18.738;2023-07-13T12:46:57;2.55;;;1.40;;
51244;SDS011;37840;47.562;18.738;2023-07-13T12:49:40;2.53;;;1.50;;
51244;SDS011;37840;47.562;18.738;2023-07-13T12:52:16;2.60;;;1.40;;
51244;SDS011;37840;47.562;18.738;2023-07-13T12:54:55;2.35;;;1.30;;
51244;SDS011;37840;47.562;18.738;2023-07-13T12:57:23;1.60;;;1.23;;
51244;SDS011;37840;47.562;18.738;2023-07-13T12:59:53;1.73;;;1.50;;
51244;SDS011;37840;47.562;18.738;2023-07-13T13:02:28;2.75;;;1.50;;
51244;SDS011;37840;47.562;18.738;2023-07-13T13:04:56;1.98;;;1.30;;
51244;SDS011;37840;47.562;18.738;2023-07-13T13:07:23;3.35;;;1.67;;
51244;SDS011;37840;47.562;18.738;2023-07-13T13:09:50;1.87;;;1.35;;
51244;SDS011;37840;47.562;18.738;2023-07-13T13:12:19;1.62;;;1.40;;
51244;SDS011;37840;47.562;18.738;2023-07-13T13:14:45;2.05;;;1.50;;
51244;SDS011;37840;47.562;18.738;2023-07-13T13:17:21;2.00;;;1.50;;
51244;SDS011;37840;47.562;18.738;2023-07-13T13:19:50;2.22;;;1.30;;
51244;SDS011;37840;47.562;18.738;2023-07-13T13:22:19;1.97;;;1.70;;
51244;SDS011;37840;47.562;18.738;2023-07-13T13:24:46;1.87;;;1.42;;
51244;SDS011;37840;47.562;18.738;2023-07-13T13:27:16;2.75;;;1.37;;
51244;SDS011;37840;47.562;18.738;2023-07-13T13:29:43;1.60;;;1.30;;
51244;SDS011;37840;47.562;18.738;2023-07-13T13:32:11;1.80;;;1.40;;
51244;SDS011;37840;47.562;18.738;2023-07-13T13:34:39;2.53;;;1.40;;
51244;SDS011;37840;47.562;18.738;2023-07-13T13:37:08;3.70;;;1.42;;
51244;SDS011;37840;47.562;18.738;2023-07-13T13:39:43;2.00;;;1.60;;
51244;SDS011;37840;47.562;18.738;2023-07-13T13:42:09;2.65;;;1.30;;
51244;SDS011;37840;47.562;18.738;2023-07-13T13:44:35;2.00;;;1.60;;
51244;SDS011;37840;47.562;18.738;2023-07-13T13:47:01;1.50;;;1.30;;
51244;SDS011;37840;47.562;18.738;2023-07-13T13:49:29;1.75;;;1.33;;
51244;SDS011;37840;47.562;18.738;2023-07-13T13:51:56;1.60;;;1.27;;
51244;SDS011;37840;47.562;18.738;2023-07-13T13:54:23;2.10;;;1.40;;
51244;SDS011;37840;47.562;18.738;2023-07-13T13:56:51;2.85;;;1.85;;
51244;SDS011;37840;47.562;18.738;2023-07-13T13:59:18;1.62;;;1.40;;
51244;SDS011;37840;47.562;18.738;2023-07-13T14:01:45;2.08;;;1.75;;
51244;SDS011;37840;47.562;18.738;2023-07-13T14:04:16;2.60;;;1.40;;
51244;SDS011;37840;47.562;18.738;2023-07-13T14:06:45;3.00;;;1.27;;
51244;SDS011;37840;47.562;18.738;2023-07-13T14:09:13;2.40;;;1.48;;
51244;SDS011;37840;47.562;18.738;2023-07-13T14:14:09;2.83;;;1.35;;
51244;SDS011;37840;47.562;18.738;2023-07-13T14:16:40;2.00;;;1.37;;
51244;SDS011;37840;47.562;18.738;2023-07-13T14:19:10;3.47;;;1.52;;
51244;SDS011;37840;47.562;18.738;2023-07-13T14:21:37;1.92;;;1.35;;
51244;SDS011;37840;47.562;18.738;2023-07-13T14:24:04;1.50;;;1.30;;
51244;SDS011;37840;47.562;18.738;2023-07-13T14:26:30;2.65;;;1.37;;
51244;SDS011;37840;47.562;18.738;2023-07-13T14:29:00;3.35;;;1.35;;
51244;SDS011;37840;47.562;18.738;2023-07-13T14:31:27;2.00;;;1.52;;
51244;SDS011;37840;47.562;18.738;2023-07-13T14:33:54;2.10;;;1.60;;
51244;SDS011;37840;47.562;18.738;2023-07-13T14:38:49;1.80;;;1.42;;
51244;SDS011;37840;47.562;18.738;2023-07-13T14:41:15;3.10;;;1.25;;
51244;SDS011;37840;47.562;18.738;2023-07-13T14:43:41;2.05;;;1.37;;
51244;SDS011;37840;47.562;18.738;2023-07-13T14:46:07;2.45;;;1.37;;
51244;SDS011;37840;47.562;18.738;2023-07-13T14:48:48;3.37;;;1.60;;
51244;SDS011;37840;47.562;18.738;2023-07-13T14:51:14;1.83;;;1.30;;
51244;SDS011;37840;47.562;18.738;2023-07-13T14:53:40;3.05;;;1.58;;
51244;SDS011;37840;47.562;18.738;2023-07-13T14:56:09;5.97;;;1.58;;
51244;SDS011;37840;47.562;18.738;2023-07-13T14:58:36;2.25;;;1.40;;
51244;SDS011;37840;47.562;18.738;2023-07-13T15:01:02;3.08;;;1.50;;
51244;SDS011;37840;47.562;18.738;2023-07-13T15:03:28;2.22;;;1.40;;
51244;SDS011;37840;47.562;18.738;2023-07-13T15:05:54;2.08;;;1.40;;
51244;SDS011;37840;47.562;18.738;2023-07-13T15:08:20;5.43;;;1.60;;
51244;SDS011;37840;47.562;18.738;2023-07-13T15:10:46;2.35;;;1.60;;
51244;SDS011;37840;47.562;18.738;2023-07-13T15:13:13;1.90;;;1.37;;
51244;SDS011;37840;47.562;18.738;2023-07-13T15:15:50;2.62;;;1.70;;
51244;SDS011;37840;47.562;18.738;2023-07-13T15:18:20;2.28;;;1.75;;
51244;SDS011;37840;47.562;18.738;2023-07-13T15:20:49;2.97;;;1.50;;
51244;SDS011;37840;47.562;18.738;2023-07-13T15:23:18;2.17;;;1.40;;
51244;SDS011;37840;47.562;18.738;2023-07-13T15:25:45;1.62;;;1.37;;
51244;SDS011;37840;47.562;18.738;2023-07-13T15:28:11;1.98;;;1.40;;
51244;SDS011;37840;47.562;18.738;2023-07-13T15:30:41;2.62;;;1.60;;